sensor_id;sensor_type;location;lat;lon;timestamp;temperature;humidity
24207;DHT22;12351;52.284;9.160;2023-05-02T00:00:06;12.60;99.90
24207;DHT22;12351;52.284;9.160;2023-05-02T00:02:53;12.60;99.90
24207;DHT22;12351;52.284;9.160;2023-05-02T00:05:40;12.60;99.90
24207;DHT22;12351;52.284;9.160;2023-05-02T00:08:27;12.60;99.90
24207;DHT22;12351;52.284;9.160;2023-05-02T00:11:14;12.60;1.00
24207;DHT22;12351;52.284;9.160;2023-05-02T00:14:01;12.60;1.00
24207;DHT22;12351;52.284;9.160;2023-05-02T00:16:48;12.50;99.90
24207;DHT22;12351;52.284;9.160;2023-05-02T00:19:37;12.50;1.00
24207;DHT22;12351;52.284;9.160;2023-05-02T00:22:25;12.50;1.00
24207;DHT22;12351;52.284;9.160;2023-05-02T00:25:13;12.50;1.00
24207;DHT22;12351;52.284;9.160;2023-05-02T00:28:01;12.50;1.00
24207;DHT22;12351;52.284;9.160;2023-05-02T00:30:49;12.50;1.00
24207;DHT22;12351;52.284;9.160;2023-05-02T00:33:35;12.50;99.90
24207;DHT22;12351;52.284;9.160;2023-05-02T00:36:23;12.40;1.00
24207;DHT22;12351;52.284;9.160;2023-05-02T00:39:09;12.40;1.00
24207;DHT22;12351;52.284;9.160;2023-05-02T00:41:57;12.40;1.00
24207;DHT22;12351;52.284;9.160;2023-05-02T00:44:45;12.40;1.00
24207;DHT22;12351;52.284;9.160;2023-05-02T00:47:32;12.40;1.00
24207;DHT22;12351;52.284;9.160;2023-05-02T00:50:19;12.40;1.00
24207;DHT22;12351;52.284;9.160;2023-05-02T00:53:08;12.40;1.00
24207;DHT22;12351;52.284;9.160;2023-05-02T00:55:57;12.30;1.00
24207;DHT22;12351;52.284;9.160;2023-05-02T01:12:57;12.20;1.00
24207;DHT22;12351;52.284;9.160;2023-05-02T01:15:46;12.20;1.00
24207;DHT22;12351;52.284;9.160;2023-05-02T01:18:35;12.10;1.00
24207;DHT22;12351;52.284;9.160;2023-05-02T01:21:23;12.10;1.00
24207;DHT22;12351;52.284;9.160;2023-05-02T01:27:06;12.10;1.00
24207;DHT22;12351;52.284;9.160;2023-05-02T01:29:52;12.00;1.00
24207;DHT22;12351;52.284;9.160;2023-05-02T01:32:41;12.00;1.00
24207;DHT22;12351;52.284;9.160;2023-05-02T01:35:31;12.00;2.00
24207;DHT22;12351;52.284;9.160;2023-05-02T01:38:20;11.90;21.20
24207;DHT22;12351;52.284;9.160;2023-05-02T01:41:09;11.90;1.00
24207;DHT22;12351;52.284;9.160;2023-05-02T01:43:58;11.90;4.30
24207;DHT22;12351;52.284;9.160;2023-05-02T01:46:47;11.80;1.50
24207;DHT22;12351;52.284;9.160;2023-05-02T01:49:34;11.90;1.00
24207;DHT22;12351;52.284;9.160;2023-05-02T01:52:22;11.80;12.40
24207;DHT22;12351;52.284;9.160;2023-05-02T01:55:12;11.80;15.90
24207;DHT22;12351;52.284;9.160;2023-05-02T01:58:00;11.80;11.20
24207;DHT22;12351;52.284;9.160;2023-05-02T02:00:48;11.80;26.40
24207;DHT22;12351;52.284;9.160;2023-05-02T02:03:35;11.80;9.80
24207;DHT22;12351;52.284;9.160;2023-05-02T02:06:23;11.80;8.60
24207;DHT22;12351;52.284;9.160;2023-05-02T02:09:11;11.80;26.30
24207;DHT22;12351;52.284;9.160;2023-05-02T02:12:04;11.70;52.10
24207;DHT22;12351;52.284;9.160;2023-05-02T02:14:55;11.70;55.80
24207;DHT22;12351;52.284;9.160;2023-05-02T02:20:29;11.70;21.90
24207;DHT22;12351;52.284;9.160;2023-05-02T02:23:19;11.70;24.40
24207;DHT22;12351;52.284;9.160;2023-05-02T02:26:07;11.70;56.90
24207;DHT22;12351;52.284;9.160;2023-05-02T02:28:55;11.70;51.40
24207;DHT22;12351;52.284;9.160;2023-05-02T02:31:42;11.70;98.20
24207;DHT22;12351;52.284;9.160;2023-05-02T02:34:29;11.60;95.10
24207;DHT22;12351;52.284;9.160;2023-05-02T02:37:18;11.60;94.30
24207;DHT22;12351;52.284;9.160;2023-05-02T02:54:22;11.50;99.90
24207;DHT22;12351;52.284;9.160;2023-05-02T03:00:01;11.50;99.90
24207;DHT22;12351;52.284;9.160;2023-05-02T03:02:48;11.50;99.90
24207;DHT22;12351;52.284;9.160;2023-05-02T03:05:36;11.40;99.90
24207;DHT22;12351;52.284;9.160;2023-05-02T03:08:24;11.50;99.90
24207;DHT22;12351;52.284;9.160;2023-05-02T03:11:11;11.40;99.90
24207;DHT22;12351;52.284;9.160;2023-05-02T03:13:58;11.40;99.90
24207;DHT22;12351;52.284;9.160;2023-05-02T03:16:45;11.40;99.90
24207;DHT22;12351;52.284;9.160;2023-05-02T03:19:32;11.40;99.90
24207;DHT22;12351;52.284;9.160;2023-05-02T03:22:19;11.40;99.90
24207;DHT22;12351;52.284;9.160;2023-05-02T03:25:07;11.40;99.90
24207;DHT22;12351;52.284;9.160;2023-05-02T03:27:56;11.40;99.90
24207;DHT22;12351;52.284;9.160;2023-05-02T03:30:43;11.40;99.90
24207;DHT22;12351;52.284;9.160;2023-05-02T03:33:30;11.40;99.90
24207;DHT22;12351;52.284;9.160;2023-05-02T03:36:17;11.40;99.90
24207;DHT22;12351;52.284;9.160;2023-05-02T03:39:05;11.40;99.90
24207;DHT22;12351;52.284;9.160;2023-05-02T03:41:52;11.40;99.90
24207;DHT22;12351;52.284;9.160;2023-05-02T03:44:38;11.40;99.90
24207;DHT22;12351;52.284;9.160;2023-05-02T03:47:26;11.30;99.90
24207;DHT22;12351;52.284;9.160;2023-05-02T03:50:13;11.30;99.90
24207;DHT22;12351;52.284;9.160;2023-05-02T03:53:00;11.30;99.90
24207;DHT22;12351;52.284;9.160;2023-05-02T03:55:47;11.30;99.90
24207;DHT22;12351;52.284;9.160;2023-05-02T03:58:35;11.30;99.90
24207;DHT22;12351;52.284;9.160;2023-05-02T04:01:22;11.30;99.90
24207;DHT22;12351;52.284;9.160;2023-05-02T04:04:08;11.20;99.90
24207;DHT22;12351;52.284;9.160;2023-05-02T04:06:56;11.20;99.90
24207;DHT22;12351;52.284;9.160;2023-05-02T04:09:42;11.20;99.90
24207;DHT22;12351;52.284;9.160;2023-05-02T04:12:30;11.20;99.90
24207;DHT22;12351;52.284;9.160;2023-05-02T04:15:17;11.20;99.90
24207;DHT22;12351;52.284;9.160;2023-05-02T04:18:04;11.10;99.90
24207;DHT22;12351;52.284;9.160;2023-05-02T04:20:51;11.00;99.90
24207;DHT22;12351;52.284;9.160;2023-05-02T04:23:38;11.00;99.90
24207;DHT22;12351;52.284;9.160;2023-05-02T04:26:25;11.00;99.90
24207;DHT22;12351;52.284;9.160;2023-05-02T04:29:12;11.00;99.90
24207;DHT22;12351;52.284;9.160;2023-05-02T04:32:00;11.00;99.90
24207;DHT22;12351;52.284;9.160;2023-05-02T04:34:47;11.00;99.90
24207;DHT22;12351;52.284;9.160;2023-05-02T04:37:34;11.00;99.90
24207;DHT22;12351;52.284;9.160;2023-05-02T04:40:21;11.00;99.90
24207;DHT22;12351;52.284;9.160;2023-05-02T04:43:08;11.00;99.90
24207;DHT22;12351;52.284;9.160;2023-05-02T04:45:55;10.90;99.90
24207;DHT22;12351;52.284;9.160;2023-05-02T04:48:43;11.00;99.90
24207;DHT22;12351;52.284;9.160;2023-05-02T04:51:30;10.90;99.90
24207;DHT22;12351;52.284;9.160;2023-05-02T04:54:18;10.90;99.90
24207;DHT22;12351;52.284;9.160;2023-05-02T04:57:04;10.90;99.90
24207;DHT22;12351;52.284;9.160;2023-05-02T04:59:52;10.90;99.90
24207;DHT22;12351;52.284;9.160;2023-05-02T05:02:40;10.90;99.90
24207;DHT22;12351;52.284;9.160;2023-05-02T05:05:27;10.90;99.90
24207;DHT22;12351;52.284;9.160;2023-05-02T05:08:14;10.90;99.90
24207;DHT22;12351;52.284;9.160;2023-05-02T05:11:01;10.60;99.90
24207;DHT22;12351;52.284;9.160;2023-05-02T05:13:49;10.40;99.90
24207;DHT22;12351;52.284;9.160;2023-05-02T05:16:36;10.30;99.90
24207;DHT22;12351;52.284;9.160;2023-05-02T05:19:23;10.10;99.90
24207;DHT22;12351;52.284;9.160;2023-05-02T05:22:11;9.60;99.90
24207;DHT22;12351;52.284;9.160;2023-05-02T05:24:58;9.50;99.90
24207;DHT22;12351;52.284;9.160;2023-05-02T05:27:45;9.50;99.90
24207;DHT22;12351;52.284;9.160;2023-05-02T05:30:32;9.40;99.90
24207;DHT22;12351;52.284;9.160;2023-05-02T05:33:19;9.40;99.90
24207;DHT22;12351;52.284;9.160;2023-05-02T05:36:08;9.50;99.90
24207;DHT22;12351;52.284;9.160;2023-05-02T05:38:56;9.10;99.90
24207;DHT22;12351;52.284;9.160;2023-05-02T05:41:43;9.10;99.90
24207;DHT22;12351;52.284;9.160;2023-05-02T05:44:31;9.00;99.90
24207;DHT22;12351;52.284;9.160;2023-05-02T05:47:19;9.00;99.90
24207;DHT22;12351;52.284;9.160;2023-05-02T05:50:07;9.00;99.90
24207;DHT22;12351;52.284;9.160;2023-05-02T05:52:54;9.20;99.90
24207;DHT22;12351;52.284;9.160;2023-05-02T05:55:41;9.20;99.90
24207;DHT22;12351;52.284;9.160;2023-05-02T05:58:28;9.10;99.90
24207;DHT22;12351;52.284;9.160;2023-05-02T06:01:15;9.10;99.90
24207;DHT22;12351;52.284;9.160;2023-05-02T06:04:02;9.10;99.90
24207;DHT22;12351;52.284;9.160;2023-05-02T06:06:51;9.00;99.90
24207;DHT22;12351;52.284;9.160;2023-05-02T06:09:39;9.10;99.90
24207;DHT22;12351;52.284;9.160;2023-05-02T06:12:27;9.10;99.90
24207;DHT22;12351;52.284;9.160;2023-05-02T06:15:14;8.90;99.90
24207;DHT22;12351;52.284;9.160;2023-05-02T06:18:01;8.80;99.90
24207;DHT22;12351;52.284;9.160;2023-05-02T06:20:48;8.80;99.90
24207;DHT22;12351;52.284;9.160;2023-05-02T06:23:35;8.80;99.90
24207;DHT22;12351;52.284;9.160;2023-05-02T06:26:22;8.70;99.90
24207;DHT22;12351;52.284;9.160;2023-05-02T06:29:09;8.50;99.90
24207;DHT22;12351;52.284;9.160;2023-05-02T06:31:56;8.60;99.90
24207;DHT22;12351;52.284;9.160;2023-05-02T06:34:43;8.80;99.90
24207;DHT22;12351;52.284;9.160;2023-05-02T06:37:33;8.70;99.90
24207;DHT22;12351;52.284;9.160;2023-05-02T06:40:20;8.80;99.90
24207;DHT22;12351;52.284;9.160;2023-05-02T06:43:07;8.80;99.90
24207;DHT22;12351;52.284;9.160;2023-05-02T06:45:54;8.90;99.90
24207;DHT22;12351;52.284;9.160;2023-05-02T06:48:41;9.00;99.90
24207;DHT22;12351;52.284;9.160;2023-05-02T06:51:29;8.90;99.90
24207;DHT22;12351;52.284;9.160;2023-05-02T06:54:17;9.00;99.90
24207;DHT22;12351;52.284;9.160;2023-05-02T06:57:03;9.00;99.90
24207;DHT22;12351;52.284;9.160;2023-05-02T06:59:50;9.00;99.90
24207;DHT22;12351;52.284;9.160;2023-05-02T07:02:37;9.00;99.90
24207;DHT22;12351;52.284;9.160;2023-05-02T07:05:24;8.80;99.90
24207;DHT22;12351;52.284;9.160;2023-05-02T07:08:11;8.90;86.20
24207;DHT22;12351;52.284;9.160;2023-05-02T07:10:58;8.80;61.40
24207;DHT22;12351;52.284;9.160;2023-05-02T07:13:45;8.80;91.10
24207;DHT22;12351;52.284;9.160;2023-05-02T07:16:33;8.90;93.70
24207;DHT22;12351;52.284;9.160;2023-05-02T07:19:20;8.80;67.50
24207;DHT22;12351;52.284;9.160;2023-05-02T07:22:07;8.80;96.10
24207;DHT22;12351;52.284;9.160;2023-05-02T07:24:56;8.90;99.90
24207;DHT22;12351;52.284;9.160;2023-05-02T07:27:43;8.90;96.00
24207;DHT22;12351;52.284;9.160;2023-05-02T07:30:30;8.80;23.00
24207;DHT22;12351;52.284;9.160;2023-05-02T07:33:18;8.60;27.90
24207;DHT22;12351;52.284;9.160;2023-05-02T07:36:11;8.70;99.90
24207;DHT22;12351;52.284;9.160;2023-05-02T07:38:59;8.70;49.00
24207;DHT22;12351;52.284;9.160;2023-05-02T07:41:51;8.70;23.50
24207;DHT22;12351;52.284;9.160;2023-05-02T07:44:40;8.70;33.90
24207;DHT22;12351;52.284;9.160;2023-05-02T07:47:32;8.80;29.80
24207;DHT22;12351;52.284;9.160;2023-05-02T07:53:12;8.60;1.00
24207;DHT22;12351;52.284;9.160;2023-05-02T07:56:06;8.50;1.00
24207;DHT22;12351;52.284;9.160;2023-05-02T07:58:54;8.70;1.00
24207;DHT22;12351;52.284;9.160;2023-05-02T08:01:45;8.80;1.00
24207;DHT22;12351;52.284;9.160;2023-05-02T08:04:35;8.90;1.00
24207;DHT22;12351;52.284;9.160;2023-05-02T08:07:27;8.90;1.00
24207;DHT22;12351;52.284;9.160;2023-05-02T08:13:09;8.40;1.00
24207;DHT22;12351;52.284;9.160;2023-05-02T08:16:01;8.60;1.00
24207;DHT22;12351;52.284;9.160;2023-05-02T08:18:49;8.70;1.00
24207;DHT22;12351;52.284;9.160;2023-05-02T08:21:43;8.80;1.00
24207;DHT22;12351;52.284;9.160;2023-05-02T08:24:32;8.70;1.00
24207;DHT22;12351;52.284;9.160;2023-05-02T08:27:23;8.50;1.00
24207;DHT22;12351;52.284;9.160;2023-05-02T08:30:13;8.50;1.00
24207;DHT22;12351;52.284;9.160;2023-05-02T08:33:05;8.60;1.00
24207;DHT22;12351;52.284;9.160;2023-05-02T08:35:56;8.70;1.00
24207;DHT22;12351;52.284;9.160;2023-05-02T08:38:46;8.80;1.00
24207;DHT22;12351;52.284;9.160;2023-05-02T08:41:39;8.80;1.00
24207;DHT22;12351;52.284;9.160;2023-05-02T08:44:33;8.60;1.00
24207;DHT22;12351;52.284;9.160;2023-05-02T08:47:23;8.60;1.00
24207;DHT22;12351;52.284;9.160;2023-05-02T08:50:18;8.70;1.00
24207;DHT22;12351;52.284;9.160;2023-05-02T08:53:08;8.50;1.00
24207;DHT22;12351;52.284;9.160;2023-05-02T08:55:58;8.60;1.00
24207;DHT22;12351;52.284;9.160;2023-05-02T08:58:51;8.70;1.00
24207;DHT22;12351;52.284;9.160;2023-05-02T09:01:42;8.70;1.00
24207;DHT22;12351;52.284;9.160;2023-05-02T09:04:34;8.50;1.00
24207;DHT22;12351;52.284;9.160;2023-05-02T09:07:25;8.60;1.00
24207;DHT22;12351;52.284;9.160;2023-05-02T09:10:16;8.70;1.00
24207;DHT22;12351;52.284;9.160;2023-05-02T09:13:26;8.80;1.00
24207;DHT22;12351;52.284;9.160;2023-05-02T09:15:58;8.60;1.00
24207;DHT22;12351;52.284;9.160;2023-05-02T09:18:51;8.80;1.00
24207;DHT22;12351;52.284;9.160;2023-05-02T09:21:40;8.60;1.00
24207;DHT22;12351;52.284;9.160;2023-05-02T09:24:32;8.70;1.00
24207;DHT22;12351;52.284;9.160;2023-05-02T09:27:25;8.60;1.00
24207;DHT22;12351;52.284;9.160;2023-05-02T09:33:03;8.40;1.00
24207;DHT22;12351;52.284;9.160;2023-05-02T09:35:56;8.30;1.00
24207;DHT22;12351;52.284;9.160;2023-05-02T09:38:47;8.40;1.00
24207;DHT22;12351;52.284;9.160;2023-05-02T09:44:34;8.50;99.90
24207;DHT22;12351;52.284;9.160;2023-05-02T09:47:23;8.60;1.00
24207;DHT22;12351;52.284;9.160;2023-05-02T09:50:08;8.40;99.90
24207;DHT22;12351;52.284;9.160;2023-05-02T09:53:01;8.60;1.00
24207;DHT22;12351;52.284;9.160;2023-05-02T09:58:42;8.70;99.90
24207;DHT22;12351;52.284;9.160;2023-05-02T10:01:33;8.70;99.90
24207;DHT22;12351;52.284;9.160;2023-05-02T10:04:23;8.80;99.90
24207;DHT22;12351;52.284;9.160;2023-05-02T10:07:13;8.70;99.90
24207;DHT22;12351;52.284;9.160;2023-05-02T10:10:04;8.40;99.90
24207;DHT22;12351;52.284;9.160;2023-05-02T10:12:55;8.50;99.90
24207;DHT22;12351;52.284;9.160;2023-05-02T10:15:44;8.80;99.90
24207;DHT22;12351;52.284;9.160;2023-05-02T10:21:26;8.90;9.60
24207;DHT22;12351;52.284;9.160;2023-05-02T10:24:17;9.00;1.00
24207;DHT22;12351;52.284;9.160;2023-05-02T10:27:07;9.10;1.00
24207;DHT22;12351;52.284;9.160;2023-05-02T10:29:57;8.90;1.00
24207;DHT22;12351;52.284;9.160;2023-05-02T10:32:47;8.90;1.00
24207;DHT22;12351;52.284;9.160;2023-05-02T10:35:36;8.80;1.00
24207;DHT22;12351;52.284;9.160;2023-05-02T10:38:29;8.80;1.00
24207;DHT22;12351;52.284;9.160;2023-05-02T10:41:18;9.00;1.00
24207;DHT22;12351;52.284;9.160;2023-05-02T10:44:08;9.30;1.00
24207;DHT22;12351;52.284;9.160;2023-05-02T10:47:01;9.50;1.00
24207;DHT22;12351;52.284;9.160;2023-05-02T10:49:51;9.50;99.90
24207;DHT22;12351;52.284;9.160;2023-05-02T10:52:41;9.50;99.90
24207;DHT22;12351;52.284;9.160;2023-05-02T10:55:32;9.40;99.90
24207;DHT22;12351;52.284;9.160;2023-05-02T10:58:20;9.20;99.90
24207;DHT22;12351;52.284;9.160;2023-05-02T11:04:03;9.30;16.40
24207;DHT22;12351;52.284;9.160;2023-05-02T11:09:41;9.60;1.00
24207;DHT22;12351;52.284;9.160;2023-05-02T11:18:12;9.80;1.00
24207;DHT22;12351;52.284;9.160;2023-05-02T11:21:23;9.80;99.90
24207;DHT22;12351;52.284;9.160;2023-05-02T11:23:51;9.80;99.90
24207;DHT22;12351;52.284;9.160;2023-05-02T11:26:41;10.00;1.00
24207;DHT22;12351;52.284;9.160;2023-05-02T11:32:20;10.00;1.00
24207;DHT22;12351;52.284;9.160;2023-05-02T11:38:00;10.00;99.90
24207;DHT22;12351;52.284;9.160;2023-05-02T11:40:50;10.30;99.90
24207;DHT22;12351;52.284;9.160;2023-05-02T11:43:40;10.30;15.10
24207;DHT22;12351;52.284;9.160;2023-05-02T11:46:28;10.40;99.90
24207;DHT22;12351;52.284;9.160;2023-05-02T11:49:17;10.60;99.90
24207;DHT22;12351;52.284;9.160;2023-05-02T11:52:04;10.60;92.10
24207;DHT22;12351;52.284;9.160;2023-05-02T11:54:53;10.70;10.90
24207;DHT22;12351;52.284;9.160;2023-05-02T11:57:42;10.80;1.00
24207;DHT22;12351;52.284;9.160;2023-05-02T12:00:33;10.80;1.00
24207;DHT22;12351;52.284;9.160;2023-05-02T12:06:14;10.80;1.00
24207;DHT22;12351;52.284;9.160;2023-05-02T12:11:54;11.30;1.00
24207;DHT22;12351;52.284;9.160;2023-05-02T12:14:42;11.20;1.00
24207;DHT22;12351;52.284;9.160;2023-05-02T12:17:33;11.00;1.00
24207;DHT22;12351;52.284;9.160;2023-05-02T12:20:20;11.00;1.00
24207;DHT22;12351;52.284;9.160;2023-05-02T12:23:09;11.10;1.00
24207;DHT22;12351;52.284;9.160;2023-05-02T12:25:58;11.10;1.00
24207;DHT22;12351;52.284;9.160;2023-05-02T12:28:49;10.90;1.00
24207;DHT22;12351;52.284;9.160;2023-05-02T12:31:38;10.70;1.00
24207;DHT22;12351;52.284;9.160;2023-05-02T12:43:03;11.20;1.00
24207;DHT22;12351;52.284;9.160;2023-05-02T12:46:07;11.20;1.00
24207;DHT22;12351;52.284;9.160;2023-05-02T12:48:42;11.00;1.00
24207;DHT22;12351;52.284;9.160;2023-05-02T12:51:30;11.10;1.00
24207;DHT22;12351;52.284;9.160;2023-05-02T12:54:20;11.20;1.00
24207;DHT22;12351;52.284;9.160;2023-05-02T12:57:07;11.20;1.00
24207;DHT22;12351;52.284;9.160;2023-05-02T12:59:57;11.20;1.00
24207;DHT22;12351;52.284;9.160;2023-05-02T13:02:45;11.60;1.00
24207;DHT22;12351;52.284;9.160;2023-05-02T13:05:34;11.90;1.00
24207;DHT22;12351;52.284;9.160;2023-05-02T13:08:22;11.70;1.00
24207;DHT22;12351;52.284;9.160;2023-05-02T13:11:12;11.60;1.00
24207;DHT22;12351;52.284;9.160;2023-05-02T13:13:59;11.50;1.00
24207;DHT22;12351;52.284;9.160;2023-05-02T13:16:48;11.50;1.00
24207;DHT22;12351;52.284;9.160;2023-05-02T13:19:41;11.40;1.00
24207;DHT22;12351;52.284;9.160;2023-05-02T13:22:28;11.50;1.00
24207;DHT22;12351;52.284;9.160;2023-05-02T13:25:16;11.40;1.00
24207;DHT22;12351;52.284;9.160;2023-05-02T13:28:03;11.40;1.00
24207;DHT22;12351;52.284;9.160;2023-05-02T13:30:51;11.40;1.00
24207;DHT22;12351;52.284;9.160;2023-05-02T13:33:39;11.50;1.00
24207;DHT22;12351;52.284;9.160;2023-05-02T13:36:26;11.30;1.00
24207;DHT22;12351;52.284;9.160;2023-05-02T13:39:15;11.40;1.00
24207;DHT22;12351;52.284;9.160;2023-05-02T13:42:03;11.50;1.00
24207;DHT22;12351;52.284;9.160;2023-05-02T13:44:51;11.40;1.00
24207;DHT22;12351;52.284;9.160;2023-05-02T13:47:41;11.70;1.00
24207;DHT22;12351;52.284;9.160;2023-05-02T13:50:30;11.90;1.00
24207;DHT22;12351;52.284;9.160;2023-05-02T13:53:19;11.90;1.00
24207;DHT22;12351;52.284;9.160;2023-05-02T13:56:08;12.10;1.00
24207;DHT22;12351;52.284;9.160;2023-05-02T13:58:57;12.00;1.00
24207;DHT22;12351;52.284;9.160;2023-05-02T14:01:47;11.90;1.00
24207;DHT22;12351;52.284;9.160;2023-05-02T14:04:35;11.90;1.00
24207;DHT22;12351;52.284;9.160;2023-05-02T14:07:22;12.00;1.00
24207;DHT22;12351;52.284;9.160;2023-05-02T14:10:12;12.00;1.00
24207;DHT22;12351;52.284;9.160;2023-05-02T14:13:05;12.10;1.00
24207;DHT22;12351;52.284;9.160;2023-05-02T14:15:57;11.80;1.00
24207;DHT22;12351;52.284;9.160;2023-05-02T14:18:46;11.80;1.00
24207;DHT22;12351;52.284;9.160;2023-05-02T14:21:37;12.20;1.00
24207;DHT22;12351;52.284;9.160;2023-05-02T14:24:27;12.60;1.00
24207;DHT22;12351;52.284;9.160;2023-05-02T14:27:17;12.70;1.00
24207;DHT22;12351;52.284;9.160;2023-05-02T14:30:10;12.20;1.00
24207;DHT22;12351;52.284;9.160;2023-05-02T14:32:58;12.30;1.00
24207;DHT22;12351;52.284;9.160;2023-05-02T14:35:48;12.50;1.00
24207;DHT22;12351;52.284;9.160;2023-05-02T14:38:42;12.70;1.00
24207;DHT22;12351;52.284;9.160;2023-05-02T14:41:29;12.30;1.00
24207;DHT22;12351;52.284;9.160;2023-05-02T14:44:20;12.40;1.00
24207;DHT22;12351;52.284;9.160;2023-05-02T14:47:09;12.60;1.00
24207;DHT22;12351;52.284;9.160;2023-05-02T14:50:01;12.70;1.00
24207;DHT22;12351;52.284;9.160;2023-05-02T14:52:53;12.60;1.00
24207;DHT22;12351;52.284;9.160;2023-05-02T14:55:43;12.70;1.00
24207;DHT22;12351;52.284;9.160;2023-05-02T14:58:34;12.40;1.00
24207;DHT22;12351;52.284;9.160;2023-05-02T15:01:23;12.70;1.00
24207;DHT22;12351;52.284;9.160;2023-05-02T15:04:13;12.80;1.00
24207;DHT22;12351;52.284;9.160;2023-05-02T15:07:03;12.80;1.00
24207;DHT22;12351;52.284;9.160;2023-05-02T15:09:53;12.50;1.00
24207;DHT22;12351;52.284;9.160;2023-05-02T15:12:41;12.10;1.00
24207;DHT22;12351;52.284;9.160;2023-05-02T15:15:30;12.20;1.00
24207;DHT22;12351;52.284;9.160;2023-05-02T15:18:17;12.10;1.00
24207;DHT22;12351;52.284;9.160;2023-05-02T15:21:05;12.30;1.00
24207;DHT22;12351;52.284;9.160;2023-05-02T15:23:53;12.40;1.00
24207;DHT22;12351;52.284;9.160;2023-05-02T15:26:44;12.50;1.00
24207;DHT22;12351;52.284;9.160;2023-05-02T15:29:34;12.40;1.00
24207;DHT22;12351;52.284;9.160;2023-05-02T15:32:22;12.40;1.00
24207;DHT22;12351;52.284;9.160;2023-05-02T15:35:11;12.40;1.00
24207;DHT22;12351;52.284;9.160;2023-05-02T15:37:59;12.20;1.00
24207;DHT22;12351;52.284;9.160;2023-05-02T15:43:37;11.70;1.00
24207;DHT22;12351;52.284;9.160;2023-05-02T15:46:25;11.60;1.00
24207;DHT22;12351;52.284;9.160;2023-05-02T15:49:18;11.60;1.00
24207;DHT22;12351;52.284;9.160;2023-05-02T15:52:05;11.70;1.00
24207;DHT22;12351;52.284;9.160;2023-05-02T15:54:54;11.40;1.00
24207;DHT22;12351;52.284;9.160;2023-05-02T15:57:40;11.40;1.00
24207;DHT22;12351;52.284;9.160;2023-05-02T16:00:29;11.50;1.00
24207;DHT22;12351;52.284;9.160;2023-05-02T16:03:19;11.70;1.00
24207;DHT22;12351;52.284;9.160;2023-05-02T16:06:08;11.50;1.00
24207;DHT22;12351;52.284;9.160;2023-05-02T16:08:56;11.20;1.00
24207;DHT22;12351;52.284;9.160;2023-05-02T16:11:45;11.40;1.00
24207;DHT22;12351;52.284;9.160;2023-05-02T16:14:33;11.40;1.00
24207;DHT22;12351;52.284;9.160;2023-05-02T16:17:23;11.40;1.00
24207;DHT22;12351;52.284;9.160;2023-05-02T16:20:15;11.00;1.00
24207;DHT22;12351;52.284;9.160;2023-05-02T16:23:04;11.10;1.00
24207;DHT22;12351;52.284;9.160;2023-05-02T16:25:56;11.50;1.00
24207;DHT22;12351;52.284;9.160;2023-05-02T16:28:44;11.50;1.00
24207;DHT22;12351;52.284;9.160;2023-05-02T16:31:31;11.40;1.00
24207;DHT22;12351;52.284;9.160;2023-05-02T16:34:21;11.40;1.00
24207;DHT22;12351;52.284;9.160;2023-05-02T16:37:12;11.60;1.00
24207;DHT22;12351;52.284;9.160;2023-05-02T16:40:01;11.60;1.00
24207;DHT22;12351;52.284;9.160;2023-05-02T16:42:50;11.70;1.00
24207;DHT22;12351;52.284;9.160;2023-05-02T16:45:37;11.70;1.00
24207;DHT22;12351;52.284;9.160;2023-05-02T16:48:25;11.40;1.00
24207;DHT22;12351;52.284;9.160;2023-05-02T16:51:11;11.20;1.00
24207;DHT22;12351;52.284;9.160;2023-05-02T16:54:01;10.90;1.00
24207;DHT22;12351;52.284;9.160;2023-05-02T16:56:49;11.00;1.00
24207;DHT22;12351;52.284;9.160;2023-05-02T16:59:39;10.80;1.00
24207;DHT22;12351;52.284;9.160;2023-05-02T17:02:27;11.00;1.00
24207;DHT22;12351;52.284;9.160;2023-05-02T17:05:18;10.50;1.00
24207;DHT22;12351;52.284;9.160;2023-05-02T17:08:09;10.70;1.00
24207;DHT22;12351;52.284;9.160;2023-05-02T17:10:57;10.70;1.00
24207;DHT22;12351;52.284;9.160;2023-05-02T17:13:46;10.80;1.00
24207;DHT22;12351;52.284;9.160;2023-05-02T17:16:34;10.90;1.00
24207;DHT22;12351;52.284;9.160;2023-05-02T17:19:24;11.10;1.00
24207;DHT22;12351;52.284;9.160;2023-05-02T17:22:12;11.20;1.00
24207;DHT22;12351;52.284;9.160;2023-05-02T17:25:04;11.20;1.00
24207;DHT22;12351;52.284;9.160;2023-05-02T17:27:53;11.20;1.00
24207;DHT22;12351;52.284;9.160;2023-05-02T17:30:43;11.20;1.00
24207;DHT22;12351;52.284;9.160;2023-05-02T17:33:34;11.30;1.00
24207;DHT22;12351;52.284;9.160;2023-05-02T17:36:24;11.00;1.00
24207;DHT22;12351;52.284;9.160;2023-05-02T17:39:18;11.10;1.00
24207;DHT22;12351;52.284;9.160;2023-05-02T17:42:05;11.10;1.00
24207;DHT22;12351;52.284;9.160;2023-05-02T17:44:54;11.20;1.00
24207;DHT22;12351;52.284;9.160;2023-05-02T17:47:43;11.20;1.00
24207;DHT22;12351;52.284;9.160;2023-05-02T17:50:36;11.10;1.00
24207;DHT22;12351;52.284;9.160;2023-05-02T17:53:28;11.10;1.00
24207;DHT22;12351;52.284;9.160;2023-05-02T17:56:22;11.10;1.00
24207;DHT22;12351;52.284;9.160;2023-05-02T17:59:15;11.10;1.00
24207;DHT22;12351;52.284;9.160;2023-05-02T18:02:03;11.00;1.00
24207;DHT22;12351;52.284;9.160;2023-05-02T18:04:50;10.90;1.00
24207;DHT22;12351;52.284;9.160;2023-05-02T18:07:37;10.90;1.00
24207;DHT22;12351;52.284;9.160;2023-05-02T18:10:24;10.90;1.00
24207;DHT22;12351;52.284;9.160;2023-05-02T18:13:12;10.60;1.00
24207;DHT22;12351;52.284;9.160;2023-05-02T18:15:59;10.70;1.00
24207;DHT22;12351;52.284;9.160;2023-05-02T18:18:46;10.70;1.00
24207;DHT22;12351;52.284;9.160;2023-05-02T18:21:33;10.60;1.00
24207;DHT22;12351;52.284;9.160;2023-05-02T18:24:22;10.70;26.10
24207;DHT22;12351;52.284;9.160;2023-05-02T18:27:09;10.70;76.40
24207;DHT22;12351;52.284;9.160;2023-05-02T18:29:56;10.70;99.90
24207;DHT22;12351;52.284;9.160;2023-05-02T18:32:43;10.70;66.60
24207;DHT22;12351;52.284;9.160;2023-05-02T18:35:31;10.70;99.90
24207;DHT22;12351;52.284;9.160;2023-05-02T18:38:18;10.60;99.90
24207;DHT22;12351;52.284;9.160;2023-05-02T18:41:05;10.60;31.80
24207;DHT22;12351;52.284;9.160;2023-05-02T18:43:53;10.50;74.80
24207;DHT22;12351;52.284;9.160;2023-05-02T18:46:41;10.50;66.50
24207;DHT22;12351;52.284;9.160;2023-05-02T18:49:28;10.60;33.10
24207;DHT22;12351;52.284;9.160;2023-05-02T18:52:15;10.60;50.20
24207;DHT22;12351;52.284;9.160;2023-05-02T18:55:02;10.60;40.30
24207;DHT22;12351;52.284;9.160;2023-05-02T18:57:50;10.50;18.10
24207;DHT22;12351;52.284;9.160;2023-05-02T19:00:38;10.50;9.80
24207;DHT22;12351;52.284;9.160;2023-05-02T19:03:25;10.50;30.20
24207;DHT22;12351;52.284;9.160;2023-05-02T19:06:13;10.50;99.90
24207;DHT22;12351;52.284;9.160;2023-05-02T19:09:01;10.50;99.90
24207;DHT22;12351;52.284;9.160;2023-05-02T19:11:49;10.50;99.90
24207;DHT22;12351;52.284;9.160;2023-05-02T19:14:38;10.40;99.90
24207;DHT22;12351;52.284;9.160;2023-05-02T19:17:25;10.40;1.00
24207;DHT22;12351;52.284;9.160;2023-05-02T19:20:13;10.40;99.90
24207;DHT22;12351;52.284;9.160;2023-05-02T19:23:00;10.40;99.90
24207;DHT22;12351;52.284;9.160;2023-05-02T19:25:48;10.30;1.00
24207;DHT22;12351;52.284;9.160;2023-05-02T19:28:35;10.30;1.00